Terminal Aerodrome Forecast
Issued by NWS

Home | Current Version | Previous Version | Text Only | Print | Product List | Glossary On
Versions: 1 2 3 4 5 6 7 8 9 10 11 12 13 14 15
000
FTUS41 KBTV 012320
TAFRUT
TAF
KRUT 012320Z 0200/0224 24010KT P6SM SCT080
     FM020600 15004KT P6SM SCT140
     FM021000 VRB03KT P6SM BKN110
      AMD LTD TO CLD VIS AND WIND=

USA.gov is the U.S. government's official web portal to all federal, state and local government web resources and services.